Time;durP1;ratioP1;P1;durP2;ratioP2;P2;SDS_P1;SDS_P2;PMS_P1;PMS_P2;Temp;Humidity;BMP_temperature;BMP_pressure;BME280_temperature;BME280_humidity;BME280_pressure;Samples;Min_cycle;Max_cycle;Signal;HPM_P1;HPM_P2
2022/09/30 00:01:54;;;;;;;10.33;9.53;;;11.10;99.90;;;;;;5037864;28;20794;-78
2022/09/30 00:04:24;;;;;;;10.13;9.43;;;11.00;99.90;;;;;;5038349;28;20566;-79
2022/09/30 00:06:54;;;;;;;10.37;9.53;;;11.00;99.90;;;;;;5036774;28;20473;-79
2022/09/30 00:09:22;;;;;;;9.20;8.50;;;11.00;99.90;;;;;;5036848;28;20461;-78
2022/09/30 00:11:51;;;;;;;10.70;9.80;;;11.00;99.90;;;;;;5037613;28;20466;-80
2022/09/30 00:14:22;;;;;;;9.13;8.40;;;10.90;99.90;;;;;;5037231;28;20888;-78
2022/09/30 00:16:50;;;;;;;9.30;8.60;;;10.90;99.90;;;;;;5037824;28;20431;-78
2022/09/30 00:19:19;;;;;;;9.97;9.17;;;10.90;99.90;;;;;;5037346;28;20447;-78
2022/09/30 00:21:47;;;;;;;9.50;8.60;;;10.90;99.90;;;;;;5037121;28;20812;-78
2022/09/30 00:24:15;;;;;;;10.17;9.17;;;10.80;99.90;;;;;;5038125;28;20569;-79
2022/09/30 00:26:43;;;;;;;11.10;10.10;;;10.80;99.90;;;;;;5039480;28;20530;-79
2022/09/30 00:29:11;;;;;;;9.10;8.40;;;10.80;99.90;;;;;;5037727;28;20447;-79
2022/09/30 00:31:41;;;;;;;9.80;9.10;;;10.80;99.90;;;;;;5037216;28;20447;-78
2022/09/30 00:34:11;;;;;;;10.27;9.47;;;10.80;99.90;;;;;;5037753;28;20491;-79
2022/09/30 00:36:42;;;;;;;10.20;9.40;;;10.80;99.90;;;;;;5038018;28;20451;-79
2022/09/30 00:39:15;;;;;;;10.30;9.50;;;10.80;99.90;;;;;;5039872;28;20491;-80
2022/09/30 00:41:45;;;;;;;10.47;9.77;;;10.80;99.90;;;;;;5038931;28;20446;-78
2022/09/30 00:44:45;;;;;;;9.83;9.13;;;10.80;99.90;;;;;;5039222;28;20459;-80
2022/09/30 00:47:44;;;;;;;9.77;9.07;;;10.70;99.90;;;;;;5037371;28;20467;-79
2022/09/30 00:50:31;;;;;;;9.97;9.27;;;10.70;99.90;;;;;;5038248;28;20454;-78
2022/09/30 00:53:19;;;;;;;10.50;9.70;;;10.70;99.90;;;;;;5038100;28;20856;-79
2022/09/30 00:55:53;;;;;;;11.00;10.10;;;10.70;99.90;;;;;;5025206;28;20446;-80
2022/09/30 00:58:28;;;;;;;11.50;10.63;;;10.70;99.90;;;;;;5039100;28;20423;-77
2022/09/30 01:01:00;;;;;;;11.00;10.10;;;10.70;99.90;;;;;;5038857;28;20458;-78
2022/09/30 01:03:31;;;;;;;11.53;10.63;;;10.70;99.90;;;;;;5038129;28;20490;-79
2022/09/30 01:06:00;;;;;;;10.47;9.60;;;10.60;99.90;;;;;;5037371;28;20526;-79
2022/09/30 01:08:30;;;;;;;10.37;9.67;;;10.70;99.90;;;;;;5036992;28;20471;-80
2022/09/30 01:10:58;;;;;;;12.10;11.10;;;10.70;99.90;;;;;;5037330;28;20478;-79
2022/09/30 01:13:34;;;;;;;11.83;10.73;;;10.70;99.90;;;;;;5037375;28;20486;-79
2022/09/30 01:16:18;;;;;;;12.17;11.10;;;10.70;99.90;;;;;;5036308;28;20984;-80
2022/09/30 01:18:59;;;;;;;12.00;11.00;;;10.60;99.90;;;;;;5037910;28;20829;-78
2022/09/30 01:21:59;;;;;;;11.70;10.80;;;10.60;99.90;;;;;;5035694;28;20443;-77
2022/09/30 01:24:46;;;;;;;10.97;10.17;;;10.60;99.90;;;;;;5039625;28;20541;-79
2022/09/30 01:27:38;;;;;;;12.00;11.10;;;10.60;99.90;;;;;;5037777;28;20451;-79
2022/09/30 01:30:20;;;;;;;11.33;10.47;;;10.60;99.90;;;;;;5020764;28;20971;-81
2022/09/30 01:33:22;;;;;;;11.10;10.30;;;10.60;99.90;;;;;;5038525;28;20791;-80
2022/09/30 01:36:14;;;;;;;11.70;10.90;;;10.60;99.90;;;;;;5041234;28;20462;-78
2022/09/30 01:38:50;;;;;;;11.87;11.07;;;10.60;99.90;;;;;;5039038;28;20471;-79
2022/09/30 01:41:25;;;;;;;12.50;11.50;;;10.50;99.90;;;;;;5039779;28;20434;-79
2022/09/30 01:44:02;;;;;;;11.33;10.40;;;10.50;99.90;;;;;;5037804;28;20998;-79
2022/09/30 01:46:36;;;;;;;13.17;12.17;;;10.50;99.90;;;;;;5038001;28;20454;-78
2022/09/30 01:49:15;;;;;;;13.90;12.90;;;10.50;99.90;;;;;;5037790;28;20489;-78
2022/09/30 01:51:53;;;;;;;13.10;12.10;;;10.50;99.90;;;;;;5038362;28;20450;-78
2022/09/30 01:54:25;;;;;;;13.33;12.37;;;10.40;99.90;;;;;;5040049;28;20820;-78
2022/09/30 01:56:58;;;;;;;13.50;12.40;;;10.50;99.90;;;;;;5038392;28;20474;-79
2022/09/30 01:59:32;;;;;;;13.37;12.27;;;10.50;99.90;;;;;;5040670;28;20439;-80
2022/09/30 02:02:07;;;;;;;13.37;12.47;;;10.50;99.90;;;;;;5037878;28;20482;-80
2022/09/30 02:04:42;;;;;;;14.13;12.83;;;10.50;99.90;;;;;;5038027;28;20512;-79
2022/09/30 02:07:16;;;;;;;14.30;13.20;;;10.50;99.90;;;;;;5038078;28;20447;-80
2022/09/30 02:09:50;;;;;;;13.30;12.30;;;10.50;99.90;;;;;;5037934;28;20442;-79
2022/09/30 02:12:21;;;;;;;13.93;12.73;;;10.50;99.90;;;;;;5039599;28;20828;-80
2022/09/30 02:14:54;;;;;;;14.17;13.07;;;10.50;99.90;;;;;;5039454;28;20891;-80
2022/09/30 02:17:28;;;;;;;14.23;13.13;;;10.40;99.90;;;;;;5037938;28;20462;-79
2022/09/30 02:20:01;;;;;;;13.53;12.53;;;10.40;99.90;;;;;;5037601;28;20839;-79
2022/09/30 02:22:31;;;;;;;13.63;12.63;;;10.40;99.90;;;;;;5037463;28;20458;-80
2022/09/30 02:25:03;;;;;;;15.43;14.23;;;10.40;99.90;;;;;;5037056;28;20474;-79
2022/09/30 02:27:41;;;;;;;13.00;12.00;;;10.40;99.90;;;;;;5038949;28;20433;-79
2022/09/30 02:30:10;;;;;;;14.17;13.17;;;10.40;99.90;;;;;;5038926;28;20450;-79
2022/09/30 02:32:44;;;;;;;14.30;13.30;;;10.40;99.90;;;;;;5037739;28;20470;-80
2022/09/30 02:35:21;;;;;;;13.13;12.23;;;10.30;99.90;;;;;;5038819;28;20741;-79
2022/09/30 02:37:54;;;;;;;13.47;12.47;;;10.30;99.90;;;;;;5035964;28;20940;-77
2022/09/30 02:40:27;;;;;;;14.70;13.60;;;10.30;99.90;;;;;;5038536;28;20431;-78
2022/09/30 02:42:55;;;;;;;13.00;12.10;;;10.20;99.90;;;;;;5039759;28;20479;-78
2022/09/30 02:45:24;;;;;;;13.73;12.73;;;10.20;99.90;;;;;;5040148;28;20557;-78
2022/09/30 02:48:06;;;;;;;16.43;15.13;;;10.20;99.90;;;;;;5039790;28;20996;-77
2022/09/30 02:50:44;;;;;;;18.80;17.20;;;10.20;99.90;;;;;;5041787;28;20983;-79
2022/09/30 02:53:20;;;;;;;18.73;17.23;;;10.10;99.90;;;;;;5041584;28;20470;-79
2022/09/30 02:56:09;;;;;;;18.70;17.33;;;10.10;99.90;;;;;;5040903;28;20442;-79
2022/09/30 02:58:39;;;;;;;13.70;12.60;;;10.10;99.90;;;;;;5042569;28;20454;-78
2022/09/30 03:01:09;;;;;;;18.13;16.93;;;10.00;99.90;;;;;;5039726;28;20554;-79
2022/09/30 03:03:41;;;;;;;16.40;15.17;;;10.10;99.90;;;;;;5040148;28;20505;-78
2022/09/30 03:06:12;;;;;;;15.70;14.50;;;10.00;99.90;;;;;;5039594;28;20445;-80
2022/09/30 03:08:40;;;;;;;15.03;13.87;;;10.00;99.90;;;;;;5040781;28;20477;-79
2022/09/30 03:11:14;;;;;;;14.87;13.67;;;10.00;99.90;;;;;;5040539;28;20481;-79
2022/09/30 03:14:22;;;;;;;22.27;20.47;;;10.00;99.90;;;;;;5039754;28;21042;-79
2022/09/30 03:17:11;;;;;;;30.67;27.97;;;9.90;99.90;;;;;;5038147;28;20458;-79
2022/09/30 03:19:51;;;;;;;23.57;21.63;;;9.90;99.90;;;;;;5044316;28;20458;-79
2022/09/30 03:23:01;;;;;;;20.73;19.13;;;9.90;99.90;;;;;;5044381;28;20442;-78
2022/09/30 03:25:40;;;;;;;20.37;18.67;;;9.80;99.90;;;;;;5040381;28;20557;-79
2022/09/30 03:28:20;;;;;;;21.07;19.37;;;9.80;99.90;;;;;;5041324;28;20434;-79
2022/09/30 03:30:55;;;;;;;22.53;20.63;;;9.80;99.90;;;;;;5039073;28;20454;-80
2022/09/30 03:33:29;;;;;;;22.40;20.40;;;9.80;99.90;;;;;;5040680;28;20465;-78
2022/09/30 03:36:05;;;;;;;21.47;19.80;;;9.70;99.90;;;;;;5041760;28;20443;-79
2022/09/30 03:38:48;;;;;;;19.73;18.17;;;9.70;99.90;;;;;;5039345;28;20439;-79
2022/09/30 03:41:22;;;;;;;17.67;16.37;;;9.70;99.90;;;;;;5041042;28;20471;-79
2022/09/30 03:43:58;;;;;;;18.17;16.87;;;9.70;99.90;;;;;;5041781;28;20478;-79
2022/09/30 03:46:33;;;;;;;15.37;14.27;;;9.60;99.90;;;;;;5042146;28;20779;-79
2022/09/30 03:49:05;;;;;;;17.60;16.40;;;9.70;99.90;;;;;;5040317;28;20458;-79
2022/09/30 03:51:37;;;;;;;25.10;22.77;;;9.60;99.90;;;;;;5037465;28;20804;-79
2022/09/30 03:54:10;;;;;;;20.77;19.17;;;9.60;99.90;;;;;;5037955;28;20477;-80
2022/09/30 03:56:41;;;;;;;18.63;17.07;;;9.60;99.90;;;;;;5037639;28;20820;-80
2022/09/30 03:59:12;;;;;;;20.57;18.97;;;9.50;99.90;;;;;;5038501;28;20442;-78
2022/09/30 04:01:40;;;;;;;19.47;17.97;;;9.50;99.90;;;;;;5039064;28;20443;-80
2022/09/30 04:04:09;;;;;;;17.93;16.73;;;9.50;99.90;;;;;;5038468;28;20471;-79
2022/09/30 04:06:37;;;;;;;17.63;16.43;;;9.50;99.90;;;;;;5038827;28;20494;-78
2022/09/30 04:09:05;;;;;;;16.87;15.67;;;9.50;99.90;;;;;;5038274;28;20471;-78
2022/09/30 04:11:34;;;;;;;17.40;16.10;;;9.40;99.90;;;;;;5038952;28;20462;-79
2022/09/30 04:14:04;;;;;;;17.03;15.73;;;9.50;99.90;;;;;;5038082;28;20505;-79
2022/09/30 04:16:33;;;;;;;17.20;15.97;;;9.40;99.90;;;;;;5038124;28;20439;-78
2022/09/30 04:19:01;;;;;;;18.50;17.10;;;9.40;99.90;;;;;;5039996;28;20470;-80
2022/09/30 04:21:30;;;;;;;18.30;17.00;;;9.50;99.90;;;;;;5038317;28;20446;-79
2022/09/30 04:23:58;;;;;;;19.70;18.20;;;9.40;99.90;;;;;;5038103;28;20505;-79
2022/09/30 04:26:26;;;;;;;24.10;21.90;;;9.30;99.90;;;;;;5039863;28;20443;-79
2022/09/30 04:28:57;;;;;;;23.60;21.60;;;9.40;99.90;;;;;;5039205;28;20471;-79
2022/09/30 04:31:25;;;;;;;22.37;20.40;;;9.30;99.90;;;;;;5037762;28;20485;-79
2022/09/30 04:33:55;;;;;;;19.27;17.87;;;9.30;99.90;;;;;;5037223;28;20482;-80
2022/09/30 04:36:24;;;;;;;18.63;17.23;;;9.30;99.90;;;;;;5037535;28;20451;-79
2022/09/30 04:38:52;;;;;;;18.93;17.37;;;9.30;99.90;;;;;;5038765;28;20947;-79
2022/09/30 04:41:20;;;;;;;18.50;17.10;;;9.20;99.90;;;;;;5036797;28;20451;-79
2022/09/30 04:43:49;;;;;;;18.90;17.50;;;9.30;99.90;;;;;;5038745;28;20451;-79
2022/09/30 04:46:21;;;;;;;19.80;18.30;;;9.20;99.90;;;;;;5038453;28;20431;-79
2022/09/30 04:48:49;;;;;;;20.00;18.60;;;9.20;99.90;;;;;;5036654;28;20474;-79
2022/09/30 04:51:19;;;;;;;20.27;18.77;;;9.20;99.90;;;;;;5038558;28;20434;-79
2022/09/30 04:53:48;;;;;;;20.10;18.50;;;9.20;99.90;;;;;;5036714;28;20477;-79
2022/09/30 04:56:17;;;;;;;20.10;18.50;;;9.20;99.90;;;;;;5037295;28;20447;-78
2022/09/30 04:58:45;;;;;;;20.77;19.27;;;9.10;99.90;;;;;;5038276;28;20454;-78
2022/09/30 05:01:16;;;;;;;21.13;19.53;;;9.10;99.90;;;;;;5037610;28;20450;-80
2022/09/30 05:03:47;;;;;;;19.90;18.40;;;9.10;99.90;;;;;;5037265;28;20999;-79
2022/09/30 05:06:16;;;;;;;20.80;19.10;;;9.10;99.90;;;;;;5037131;28;20936;-78
2022/09/30 05:08:44;;;;;;;20.87;19.27;;;9.10;99.90;;;;;;5041929;28;20867;-80
2022/09/30 05:11:16;;;;;;;20.73;19.00;;;9.10;99.90;;;;;;5045484;28;20477;-80
2022/09/30 05:13:46;;;;;;;20.97;19.33;;;9.10;99.90;;;;;;5045260;28;20499;-80
2022/09/30 05:16:15;;;;;;;20.90;19.20;;;9.10;99.90;;;;;;5044856;28;20546;-80
2022/09/30 05:18:45;;;;;;;20.07;18.67;;;9.10;99.90;;;;;;5042399;28;20462;-80
2022/09/30 05:21:15;;;;;;;20.13;18.40;;;9.10;99.90;;;;;;5040094;28;20511;-80
2022/09/30 05:23:43;;;;;;;21.27;19.60;;;9.10;99.90;;;;;;5039554;28;21027;-79
2022/09/30 05:26:11;;;;;;;21.77;19.90;;;9.10;99.90;;;;;;5038465;28;20453;-80
2022/09/30 05:28:40;;;;;;;21.77;20.03;;;9.10;99.90;;;;;;5039862;28;20447;-80
2022/09/30 05:31:08;;;;;;;21.47;19.80;;;9.10;99.90;;;;;;5039028;28;20510;-80
2022/09/30 05:33:37;;;;;;;22.60;21.00;;;9.10;99.90;;;;;;5039095;28;20466;-79
2022/09/30 05:36:08;;;;;;;22.20;20.53;;;9.10;99.90;;;;;;5038529;28;20968;-80
2022/09/30 05:38:37;;;;;;;21.87;20.03;;;9.10;99.90;;;;;;5039293;28;20451;-79
2022/09/30 05:41:10;;;;;;;21.43;19.83;;;9.10;99.90;;;;;;5038935;28;20451;-79
2022/09/30 05:43:39;;;;;;;24.43;22.47;;;9.10;99.90;;;;;;5040624;28;20495;-80
2022/09/30 05:46:08;;;;;;;22.83;21.13;;;9.10;99.90;;;;;;5039840;28;20451;-79
2022/09/30 05:48:36;;;;;;;25.40;23.27;;;9.10;99.90;;;;;;5039370;28;20439;-80
2022/09/30 05:51:06;;;;;;;23.60;21.70;;;9.10;99.90;;;;;;5037999;28;20470;-80
2022/09/30 05:53:37;;;;;;;22.17;20.47;;;9.10;99.90;;;;;;5038276;28;20558;-80
2022/09/30 05:56:06;;;;;;;22.70;20.90;;;9.10;99.90;;;;;;5039537;28;20470;-79
2022/09/30 05:58:34;;;;;;;22.73;21.03;;;9.10;99.90;;;;;;5038446;28;20431;-80
2022/09/30 06:01:07;;;;;;;21.60;19.90;;;9.10;99.90;;;;;;5039423;28;20466;-80
2022/09/30 06:03:40;;;;;;;22.80;21.00;;;9.10;99.90;;;;;;5040255;28;20469;-79
2022/09/30 06:06:11;;;;;;;22.80;21.17;;;9.10;99.90;;;;;;5038106;28;20854;-80
2022/09/30 06:08:40;;;;;;;23.80;22.10;;;9.20;99.90;;;;;;5038026;28;20427;-79
2022/09/30 06:11:11;;;;;;;25.50;23.50;;;9.10;99.90;;;;;;5038923;28;20474;-80
2022/09/30 06:13:40;;;;;;;25.27;23.40;;;9.10;99.90;;;;;;5038026;28;20482;-80
2022/09/30 06:16:10;;;;;;;25.63;23.73;;;9.10;99.90;;;;;;5039651;28;20466;-80
2022/09/30 06:18:39;;;;;;;27.17;24.87;;;9.10;99.90;;;;;;5042405;28;20442;-80
2022/09/30 06:21:11;;;;;;;25.87;23.90;;;9.10;99.90;;;;;;5042270;28;20960;-80
2022/09/30 06:23:40;;;;;;;27.53;25.10;;;9.20;99.90;;;;;;5044703;28;21029;-80
2022/09/30 06:26:10;;;;;;;26.70;24.70;;;9.20;99.90;;;;;;5042218;28;20549;-80
2022/09/30 06:28:38;;;;;;;26.77;24.57;;;9.30;99.90;;;;;;5043959;28;20497;-79
2022/09/30 06:31:07;;;;;;;27.60;25.40;;;9.30;99.90;;;;;;5041656;28;20478;-80
2022/09/30 06:33:35;;;;;;;28.70;26.50;;;9.30;99.90;;;;;;5041554;28;20473;-80
2022/09/30 06:36:07;;;;;;;27.77;25.67;;;9.30;99.90;;;;;;5043646;28;20433;-78
2022/09/30 06:38:38;;;;;;;27.77;25.77;;;9.30;99.90;;;;;;5040696;28;20443;-79
2022/09/30 06:41:07;;;;;;;28.13;25.93;;;9.30;99.90;;;;;;5041430;28;20423;-79
2022/09/30 06:43:35;;;;;;;27.73;25.63;;;9.30;99.90;;;;;;5042327;28;20473;-79
2022/09/30 06:46:13;;;;;;;27.70;25.50;;;9.30;99.90;;;;;;5042287;28;20477;-78
2022/09/30 06:48:51;;;;;;;27.73;25.63;;;9.30;99.90;;;;;;5040361;28;20457;-79
2022/09/30 06:51:31;;;;;;;27.60;25.50;;;9.30;99.90;;;;;;5040209;28;20470;-78
2022/09/30 06:54:01;;;;;;;30.83;28.37;;;9.30;99.90;;;;;;5041994;28;20476;-79
2022/09/30 06:56:30;;;;;;;29.60;27.20;;;9.30;99.90;;;;;;5039222;28;20442;-79
2022/09/30 06:58:59;;;;;;;30.80;28.40;;;9.30;99.90;;;;;;5040975;28;20471;-78
2022/09/30 07:01:28;;;;;;;31.13;28.57;;;9.40;99.90;;;;;;5039615;28;20451;-78
2022/09/30 07:03:57;;;;;;;31.23;28.63;;;9.40;99.90;;;;;;5039396;28;20565;-78
2022/09/30 07:06:25;;;;;;;30.07;27.40;;;9.40;99.90;;;;;;5038809;28;20857;-79
2022/09/30 07:08:54;;;;;;;32.93;30.20;;;9.40;99.90;;;;;;5038328;28;20535;-78
2022/09/30 07:11:23;;;;;;;32.23;29.73;;;9.50;99.90;;;;;;5039281;28;20996;-78
2022/09/30 07:13:51;;;;;;;29.40;27.17;;;9.50;99.90;;;;;;5041027;28;20473;-78
2022/09/30 07:16:21;;;;;;;30.77;28.47;;;9.50;99.90;;;;;;5038831;28;20459;-78
2022/09/30 07:18:49;;;;;;;31.00;28.70;;;9.50;99.90;;;;;;5040060;28;20456;-79
2022/09/30 07:21:18;;;;;;;32.63;30.13;;;9.60;99.90;;;;;;5039439;28;20999;-78
2022/09/30 07:23:47;;;;;;;32.30;29.60;;;9.60;99.90;;;;;;5040736;28;20474;-79
2022/09/30 07:26:17;;;;;;;31.03;28.33;;;9.60;99.90;;;;;;5037409;28;20811;-77
2022/09/30 07:28:47;;;;;;;32.97;30.27;;;9.70;99.90;;;;;;5038681;28;20447;-79
2022/09/30 07:31:17;;;;;;;30.30;28.00;;;9.70;99.90;;;;;;5038611;28;20533;-78
2022/09/30 07:34:05;;;;;;;30.87;28.47;;;9.70;99.90;;;;;;5037499;28;20510;-78
2022/09/30 07:36:36;;;;;;;31.70;29.30;;;9.80;99.90;;;;;;5038135;28;20578;-78
2022/09/30 07:39:07;;;;;;;31.90;29.40;;;9.80;99.90;;;;;;5040065;28;20798;-79
2022/09/30 07:41:38;;;;;;;32.53;29.83;;;9.80;99.90;;;;;;5037641;28;20439;-79
2022/09/30 07:44:11;;;;;;;31.43;28.73;;;9.90;99.90;;;;;;5038353;28;20538;-79
2022/09/30 07:46:39;;;;;;;32.17;29.57;;;10.00;99.90;;;;;;5036956;28;20447;-79
2022/09/30 07:49:12;;;;;;;32.60;30.17;;;10.00;99.90;;;;;;5037067;28;20451;-78
2022/09/30 07:51:44;;;;;;;31.23;28.53;;;10.10;99.90;;;;;;5038666;28;20467;-78
2022/09/30 07:54:14;;;;;;;32.67;29.97;;;10.10;99.90;;;;;;5036930;28;20528;-79
2022/09/30 07:56:43;;;;;;;29.87;27.20;;;10.20;99.90;;;;;;5037104;28;20442;-79
2022/09/30 07:59:34;;;;;;;29.17;26.97;;;10.40;99.90;;;;;;5037560;28;20443;-78
2022/09/30 08:02:02;;;;;;;30.43;28.03;;;10.50;99.90;;;;;;5038460;28;20426;-78
2022/09/30 08:04:31;;;;;;;31.57;28.90;;;10.60;99.90;;;;;;5038423;28;20481;-77
2022/09/30 08:07:01;;;;;;;29.23;26.93;;;10.80;99.90;;;;;;5037103;28;20443;-78
2022/09/30 08:09:30;;;;;;;29.53;27.13;;;10.90;99.90;;;;;;5037174;28;20462;-78
2022/09/30 08:11:58;;;;;;;29.03;26.43;;;11.10;99.90;;;;;;5036598;28;21073;-79
2022/09/30 08:14:28;;;;;;;27.37;25.23;;;11.20;99.90;;;;;;5037364;28;20471;-79
2022/09/30 08:16:59;;;;;;;24.23;22.33;;;11.40;99.90;;;;;;5036836;28;20462;-78
2022/09/30 08:19:29;;;;;;;25.03;22.93;;;11.50;99.90;;;;;;5037787;28;20431;-80
2022/09/30 08:21:58;;;;;;;24.10;22.10;;;11.60;99.90;;;;;;5036319;28;20447;-77
2022/09/30 08:24:27;;;;;;;24.03;22.23;;;11.80;99.90;;;;;;5036076;28;20541;-79
2022/09/30 08:26:55;;;;;;;24.43;22.33;;;11.80;99.90;;;;;;5036278;28;20968;-80
2022/09/30 08:29:23;;;;;;;24.57;22.57;;;12.00;99.90;;;;;;5035793;28;20816;-79
2022/09/30 08:32:13;;;;;;;23.60;21.70;;;12.10;99.90;;;;;;5036110;28;20882;-79
2022/09/30 08:34:41;;;;;;;22.57;20.77;;;12.20;99.90;;;;;;5035792;28;20467;-79
2022/09/30 08:37:09;;;;;;;22.57;20.47;;;12.30;99.90;;;;;;5035124;28;20456;-79
2022/09/30 08:39:38;;;;;;;21.00;19.17;;;12.50;99.90;;;;;;5035764;28;20451;-78
2022/09/30 08:42:21;;;;;;;19.50;17.90;;;12.60;99.90;;;;;;5036906;28;20540;-79
2022/09/30 08:45:13;;;;;;;21.90;20.00;;;12.70;99.90;;;;;;5037932;28;20490;-79
2022/09/30 08:47:49;;;;;;;19.90;18.20;;;12.70;99.90;;;;;;5035550;28;20447;-79
2022/09/30 08:50:28;;;;;;;19.67;18.03;;;12.90;99.90;;;;;;5034815;28;20443;-77
2022/09/30 08:52:59;;;;;;;18.93;17.03;;;12.90;99.90;;;;;;5034799;28;20467;-78
2022/09/30 08:55:38;;;;;;;20.93;19.03;;;13.10;99.90;;;;;;5035037;28;20447;-79
2022/09/30 08:58:14;;;;;;;20.40;18.60;;;13.10;99.90;;;;;;5035081;28;20435;-79
2022/09/30 09:00:43;;;;;;;20.23;18.53;;;13.20;99.90;;;;;;5036613;28;20422;-80
2022/09/30 09:03:14;;;;;;;21.17;19.20;;;13.30;99.90;;;;;;5035437;28;21066;-80
2022/09/30 09:05:53;;;;;;;20.07;18.17;;;13.30;99.90;;;;;;5037311;28;20905;-80
2022/09/30 09:08:28;;;;;;;18.67;17.17;;;13.40;99.90;;;;;;5035023;28;20454;-80
2022/09/30 09:11:02;;;;;;;19.97;18.17;;;13.50;99.90;;;;;;5036234;28;20900;-80
2022/09/30 09:13:42;;;;;;;19.60;18.00;;;13.60;99.90;;;;;;5035746;28;20458;-78
2022/09/30 09:16:15;;;;;;;18.57;16.70;;;13.60;99.90;;;;;;5036569;28;20423;-78
2022/09/30 09:18:55;;;;;;;17.77;16.07;;;13.70;99.90;;;;;;5036724;28;20435;-81
2022/09/30 09:21:36;;;;;;;17.80;16.27;;;13.70;99.90;;;;;;5034756;28;20439;-77
2022/09/30 09:24:12;;;;;;;18.27;16.67;;;13.80;99.90;;;;;;5035859;28;20482;-79
2022/09/30 09:26:40;;;;;;;18.13;16.63;;;13.90;99.90;;;;;;5035178;28;20442;-79
2022/09/30 09:29:23;;;;;;;19.87;18.37;;;14.00;99.90;;;;;;5035529;28;20451;-80
2022/09/30 09:31:53;;;;;;;19.27;17.67;;;14.00;99.90;;;;;;5036800;28;20478;-81
2022/09/30 09:34:25;;;;;;;19.90;18.20;;;14.10;99.90;;;;;;5035435;28;20513;-81
2022/09/30 09:37:06;;;;;;;17.00;15.50;;;14.20;99.90;;;;;;5035217;28;20955;-81
2022/09/30 09:39:53;;;;;;;17.47;15.87;;;14.20;99.90;;;;;;5036328;28;20427;-80
2022/09/30 09:42:42;;;;;;;22.27;20.37;;;14.30;99.90;;;;;;5037240;28;20435;-80
2022/09/30 09:45:20;;;;;;;16.60;15.13;;;14.30;99.90;;;;;;5036892;28;20426;-81
2022/09/30 09:47:51;;;;;;;15.43;14.07;;;14.40;99.90;;;;;;5036942;28;20427;-81
2022/09/30 09:50:27;;;;;;;13.30;12.20;;;14.40;99.90;;;;;;5035395;28;20804;-82
2022/09/30 09:53:16;;;;;;;13.80;12.60;;;14.40;99.90;;;;;;5037236;28;20819;-81
2022/09/30 09:55:44;;;;;;;14.70;13.30;;;14.50;99.90;;;;;;5036062;28;20447;-81
2022/09/30 09:58:16;;;;;;;12.53;11.53;;;14.50;99.90;;;;;;5035758;28;20461;-81
2022/09/30 10:01:30;;;;;;;12.60;11.60;;;14.50;99.90;;;;;;5035936;28;20517;-81
2022/09/30 10:04:15;;;;;;;13.60;12.47;;;14.60;99.90;;;;;;5035144;28;20853;-83
2022/09/30 10:06:54;;;;;;;11.37;10.30;;;14.60;99.90;;;;;;5035375;28;20514;-82
2022/09/30 10:09:31;;;;;;;13.17;11.97;;;14.60;99.90;;;;;;5036059;28;20455;-81
2022/09/30 10:12:28;;;;;;;12.07;11.07;;;14.60;99.90;;;;;;5036984;28;20470;-82
2022/09/30 10:15:00;;;;;;;10.73;9.83;;;14.70;99.90;;;;;;5037155;28;20458;-82
2022/09/30 10:17:30;;;;;;;12.53;11.53;;;14.70;99.90;;;;;;5035861;28;20435;-82
2022/09/30 10:20:06;;;;;;;10.83;9.93;;;14.80;99.90;;;;;;5036408;28;20442;-81
2022/09/30 10:22:36;;;;;;;10.60;9.70;;;14.80;99.90;;;;;;5037701;28;20442;-81
2022/09/30 10:25:22;;;;;;;12.27;11.07;;;14.90;99.90;;;;;;5037506;28;20789;-80
2022/09/30 10:27:53;;;;;;;10.53;9.63;;;14.90;99.90;;;;;;5037994;28;20454;-81
2022/09/30 10:30:41;;;;;;;10.03;9.13;;;15.00;99.90;;;;;;5036368;28;20454;-81
2022/09/30 10:33:23;;;;;;;8.97;8.27;;;15.10;99.90;;;;;;5038979;28;20482;-81
2022/09/30 10:36:04;;;;;;;10.20;9.40;;;15.10;99.90;;;;;;5037568;28;20443;-83
2022/09/30 10:38:34;;;;;;;9.37;8.53;;;15.10;99.90;;;;;;5036994;28;20493;-81
2022/09/30 10:41:04;;;;;;;8.13;7.40;;;15.20;99.90;;;;;;5039055;28;20939;-81
2022/09/30 10:43:39;;;;;;;9.30;8.50;;;15.20;99.90;;;;;;5038661;28;20536;-80
2022/09/30 10:46:09;;;;;;;9.20;8.40;;;15.20;99.90;;;;;;5038291;28;20450;-82
2022/09/30 10:48:56;;;;;;;8.07;7.17;;;15.30;99.90;;;;;;5037335;28;20565;-80
2022/09/30 10:51:27;;;;;;;7.00;6.33;;;15.30;99.90;;;;;;5036055;28;20439;-80
2022/09/30 10:53:58;;;;;;;7.33;6.63;;;15.40;99.90;;;;;;5036571;28;20533;-79
2022/09/30 10:56:52;;;;;;;7.17;6.47;;;15.50;99.90;;;;;;5035298;28;20457;-79
2022/09/30 10:59:31;;;;;;;8.13;7.43;;;15.50;99.90;;;;;;5016461;28;20944;-78
2022/09/30 11:02:14;;;;;;;8.20;7.53;;;15.60;99.90;;;;;;5037116;28;20450;-80
2022/09/30 11:04:48;;;;;;;7.60;6.80;;;15.50;99.90;;;;;;5040161;28;20458;-79
2022/09/30 11:07:26;;;;;;;8.60;7.90;;;15.50;99.90;;;;;;5039047;28;20496;-80
2022/09/30 11:10:02;;;;;;;7.83;7.17;;;15.50;99.90;;;;;;5038789;28;20438;-79
2022/09/30 11:12:39;;;;;;;7.83;7.13;;;15.60;99.90;;;;;;5039534;28;20914;-81
2022/09/30 11:15:15;;;;;;;8.30;7.60;;;15.60;99.90;;;;;;5039710;28;20889;-80
2022/09/30 11:17:52;;;;;;;7.07;6.47;;;15.70;99.90;;;;;;5040157;28;20441;-78
2022/09/30 11:20:25;;;;;;;6.30;5.70;;;15.70;99.90;;;;;;5037861;28;20807;-80
2022/09/30 11:22:58;;;;;;;5.87;5.37;;;15.70;99.90;;;;;;5039705;28;20518;-79
2022/09/30 11:25:38;;;;;;;7.03;6.40;;;15.70;99.90;;;;;;5038838;28;20431;-79
2022/09/30 11:28:41;;;;;;;5.30;4.80;;;15.60;99.90;;;;;;5037521;28;20446;-78
2022/09/30 11:31:23;;;;;;;4.67;4.17;;;15.60;99.90;;;;;;5030926;28;20495;-79
2022/09/30 11:34:03;;;;;;;5.27;4.77;;;15.60;99.90;;;;;;5036454;28;20533;-78
2022/09/30 11:36:41;;;;;;;4.90;4.40;;;15.60;99.90;;;;;;5038092;28;20419;-77
2022/09/30 11:39:38;;;;;;;4.60;4.17;;;15.60;99.90;;;;;;5036580;28;20947;-78
2022/09/30 11:42:17;;;;;;;5.10;4.60;;;15.60;99.90;;;;;;5037234;28;20822;-79
2022/09/30 11:44:46;;;;;;;4.20;3.80;;;15.60;99.90;;;;;;5037805;28;20482;-80
2022/09/30 11:47:38;;;;;;;5.63;3.80;;;15.60;99.90;;;;;;5038254;28;20451;-80
2022/09/30 11:50:29;;;;;;;6.47;3.90;;;15.70;99.90;;;;;;5039245;28;20402;-79
2022/09/30 11:53:07;;;;;;;6.20;4.73;;;15.60;99.90;;;;;;5037373;28;20470;-80
2022/09/30 11:55:47;;;;;;;5.20;4.73;;;15.70;99.90;;;;;;5038351;28;20937;-80
2022/09/30 11:58:20;;;;;;;4.83;4.40;;;15.70;99.90;;;;;;5037752;28;20533;-79
2022/09/30 12:01:20;;;;;;;6.17;5.57;;;15.80;99.90;;;;;;5037387;28;20538;-80
2022/09/30 12:04:01;;;;;;;6.70;6.10;;;15.90;99.90;;;;;;5037461;28;20494;-80
2022/09/30 12:06:34;;;;;;;8.20;7.40;;;15.90;99.90;;;;;;5037936;28;20445;-80
2022/09/30 12:09:14;;;;;;;9.27;8.57;;;16.00;99.90;;;;;;5038814;28;20519;-79
2022/09/30 12:11:49;;;;;;;9.60;8.70;;;16.10;99.90;;;;;;5037126;28;20443;-80
2022/09/30 12:14:25;;;;;;;8.80;8.00;;;16.20;99.90;;;;;;5038399;28;20459;-79
2022/09/30 12:16:56;;;;;;;8.63;7.90;;;16.20;99.90;;;;;;5037253;28;20936;-79
2022/09/30 12:19:30;;;;;;;11.33;10.30;;;16.30;99.90;;;;;;5038864;28;20423;-79
2022/09/30 12:22:05;;;;;;;10.77;9.83;;;16.30;99.90;;;;;;5036647;28;20430;-80
2022/09/30 12:24:37;;;;;;;8.40;7.67;;;16.30;99.90;;;;;;5036216;28;20441;-80
2022/09/30 12:27:14;;;;;;;10.77;9.77;;;16.30;99.90;;;;;;5037650;28;20406;-80
2022/09/30 12:33:29;;;;;;;12.13;10.90;;;16.30;99.90;;;;;;5036645;28;20439;-80
2022/09/30 12:36:26;;;;;;;10.73;9.83;;;16.40;99.90;;;;;;4961113;28;20450;-79
2022/09/30 12:39:23;;;;;;;12.57;11.27;;;16.50;99.90;;;;;;4961722;28;20416;-80
2022/09/30 12:42:06;;;;;;;11.53;10.40;;;16.50;99.90;;;;;;5037845;28;20454;-79
2022/09/30 12:44:59;;;;;;;11.10;10.10;;;16.50;99.90;;;;;;5040002;28;20429;-79
2022/09/30 12:47:44;;;;;;;10.30;9.40;;;16.60;99.90;;;;;;5036467;28;20418;-79
2022/09/30 12:50:15;;;;;;;11.43;10.43;;;16.60;99.90;;;;;;5037715;28;20429;-79
2022/09/30 12:52:44;;;;;;;10.53;9.43;;;16.70;99.90;;;;;;5036705;28;21035;-79
2022/09/30 12:55:24;;;;;;;11.23;10.10;;;16.80;99.90;;;;;;5036714;28;20457;-78
2022/09/30 12:57:53;;;;;;;10.33;9.47;;;16.90;99.90;;;;;;5036405;28;20458;-79
2022/09/30 13:00:25;;;;;;;11.40;10.50;;;16.90;99.90;;;;;;5037217;28;20439;-79
2022/09/30 13:02:56;;;;;;;12.07;11.07;;;16.90;99.90;;;;;;5036443;28;20421;-78
2022/09/30 13:05:47;;;;;;;13.40;12.20;;;17.00;99.90;;;;;;5037928;28;20449;-79
2022/09/30 13:08:40;;;;;;;11.40;10.40;;;17.00;99.90;;;;;;5036996;28;20418;-79
2022/09/30 13:11:36;;;;;;;11.30;10.27;;;17.00;99.90;;;;;;5032808;28;20457;-78
2022/09/30 13:14:38;;;;;;;11.67;10.67;;;17.10;99.90;;;;;;5036233;28;20456;-78
2022/09/30 13:17:27;;;;;;;13.20;12.10;;;17.10;99.90;;;;;;5023464;28;20428;-80